METAR AND TAF INFORMATION
METAR FOR EHEH
ADDS - METARS form results

(2123 UTC 15 December 2017)
Data provider http://aviationweather.gov/adds/metars/
 
METAR text: EHEH 152103Z AUTO 32002KT 9999 FEW016 OVC023 03/02 Q1001 WHT VRB03KT 9999 BKN016 BKN025 TEMPO 3000 BR BKN006
Conditions at: EHEH (EINDHOVEN RNLAFB, NL) observed 2103 UTC 15 December 2017
Temperature: 3.0°C (37°F)
Dewpoint: 2.0°C (36°F) [RH = 93%]
Pressure (altimeter): 29.56 inches Hg (1001.0 mb)
Winds: from the NW (320 degrees) at 2 MPH (2 knots; 1.0 m/s)
Visibility: 6 or more miles (10+ km)
Ceiling: 2300 feet AGL
Clouds: few clouds at 1600 feet AGL
overcast cloud deck at 2300 feet AGL
broken clouds at 1600 feet AGL
broken clouds at 2500 feet AGL
Weather: no significant weather observed at this time

METAR text: EHEH 152059Z AUTO 30001KT 9999 FEW016 OVC025 04/02 Q1001 BLU VRB03KT 9999 BKN016 BKN025 TEMPO 3000 BR BKN006
Conditions at: EHEH (EINDHOVEN RNLAFB, NL) observed 2059 UTC 15 December 2017
Temperature: 4.0°C (39°F)
Dewpoint: 2.0°C (36°F) [RH = 87%]
Pressure (altimeter): 29.56 inches Hg (1001.0 mb)
Winds: from the WNW (300 degrees) at 1 MPH (1 knots; 0.5 m/s)
Visibility: 6 or more miles (10+ km)
Ceiling: 2500 feet AGL
Clouds: few clouds at 1600 feet AGL
overcast cloud deck at 2500 feet AGL
broken clouds at 1600 feet AGL
broken clouds at 2500 feet AGL
Weather: no significant weather observed at this time

METAR text: EHEH 152055Z AUTO 00000KT 9999 OVC024 04/02 Q1001 WHT VRB03KT 9999 BKN016 BKN025 TEMPO 3000 BR BKN006
Conditions at: EHEH (EINDHOVEN RNLAFB, NL) observed 2055 UTC 15 December 2017
Temperature: 4.0°C (39°F)
Dewpoint: 2.0°C (36°F) [RH = 87%]
Pressure (altimeter): 29.56 inches Hg (1001.0 mb)
Winds: calm
Visibility: 6 or more miles (10+ km)
Ceiling: 2400 feet AGL
Clouds: overcast cloud deck at 2400 feet AGL
broken clouds at 1600 feet AGL
broken clouds at 2500 feet AGL
Weather: no significant weather observed at this time

METAR text: EHEH 152025Z AUTO 01003KT 9999 FEW013 SCT016 OVC024 04/02 Q1001 WHT VRB03KT 9999 BKN016 BKN025 TEMPO 3000 BR BKN006
Conditions at: EHEH (EINDHOVEN RNLAFB, NL) observed 2025 UTC 15 December 2017
Temperature: 4.0°C (39°F)
Dewpoint: 2.0°C (36°F) [RH = 87%]
Pressure (altimeter): 29.56 inches Hg (1001.0 mb)
Winds: from the N (10 degrees) at 3 MPH (3 knots; 1.6 m/s)
Visibility: 6 or more miles (10+ km)
Ceiling: 2400 feet AGL
Clouds: few clouds at 1300 feet AGL
scattered clouds at 1600 feet AGL
overcast cloud deck at 2400 feet AGL
broken clouds at 1600 feet AGL
Weather: no significant weather observed at this time

Forecast for: EHEH (EINDHOVEN RNLAFB, NL)
Text: TAF EHEH 151726Z 1518/1624 VRB03KT 9999 FEW012 BKN018
Forecast period: 1800 UTC 15 December 2017 to 0200 UTC 16 December 2017
Forecast type: FROM: standard forecast or significant change
Winds: variable direction winds at 3 MPH (3 knots; 1.6 m/s)
Visibility: 6 or more miles (10+ km)
Ceiling: 1800 feet AGL
Clouds: few clouds at 1200 feet AGL
broken clouds at 1800 feet AGL
Weather: no significant weather forecast for this period
Text: PROB40 1518/1622 2500 BR BKN006
Forecast period: 1800 UTC 15 December 2017 to 2200 UTC 16 December 2017
Forecast type: PROBABLE: 40 percent likelihood of the following during this time
Visibility: 1.55 miles (2.49 km)
Ceiling: 600 feet AGL
Clouds: broken clouds at 600 feet AGL
Weather: BR  (mist)
Text: PROB30 1522/1604 0800 FG SCT001
Forecast period: 2200 UTC 15 December 2017 to 0400 UTC 16 December 2017
Forecast type: PROBABLE: 30 percent likelihood of the following during this time
Visibility: 0.50 miles (0.80 km)
Clouds: scattered clouds at 100 feet AGL
Weather: FG  (fog)
Text: BECMG 1602/1605 28007KT
Forecast period: 0200 UTC 16 December 2017 to 0000 UTC 17 December 2017
Forecast type: BECOMING: Conditions expected to become as follows by 0500 UTC 16 December 2017
Winds: from the W (280 degrees) at 8 MPH (7 knots; 3.6 m/s)
Visibility: 6 or more miles (10+ km)
Ceiling: 1800 feet AGL
Clouds: few clouds at 1200 feet AGL
broken clouds at 1800 feet AGL
Weather: no significant weather forecast for this period
Text: TEMPO 1602/1624 4000 -SHRASNGS SCT010 SCT018CB BKN020
Forecast period: 0200 UTC 16 December 2017 to 0000 UTC 17 December 2017
Forecast type: TEMPORARY: The following changes expected for less than half the time period
Visibility: 2.49 miles (4.01 km)
Ceiling: 2000 feet AGL
Clouds: scattered clouds at 1000 feet AGL
scattered clouds at 1800 feet AGL
broken clouds at 2000 feet AGL
Weather: -SHRA -SHSN -SHGS  (light rain showers, light snow showers could not decipher "-SHGS")

 AIRPORT MAP

 RUNWAY INFORMATION
Runway 03 Runway length 9843 ft Runway width 148 ft
Runway elevation 73 ft Runway displaced threshold 821 ft Runway heading 35
Runway 21 Runway length 9843 ft Runway width 148 ft
Runway elevation 67 ft Runway displaced threshold 821 ft Runway heading 215

 AIRPORT FREQUENCIES
Type APP Name APP Frequency 123.175 MHZ
Type ATIS Name ATIS Frequency 126.025 MHZ
Type DIR Name DIRECTOR Frequency 124.525 MHZ
Type GND Name GND Frequency 121.925 MHZ
Type TWR Name TWR Frequency 131 MHZ

 AIRPORT NEAR NAVIGATION AIDS
Type NDB Name Eindhoven Frequency 397 KHZ
Type TACAN Name Eindhoven Frequency 117200 KHZ